createdAt,value
2019-03-22T00:00:10.249Z,15.13
2019-03-22T00:02:38.796Z,20.30
2019-03-22T00:05:07.281Z,21.82
2019-03-22T00:07:35.743Z,22.25
2019-03-22T00:10:05.501Z,16.05
2019-03-22T00:12:33.913Z,17.80
2019-03-22T00:15:02.439Z,17.40
2019-03-22T00:17:30.847Z,19.60
2019-03-22T00:19:59.252Z,15.08
2019-03-22T00:22:28.078Z,17.60
2019-03-22T00:24:56.485Z,20.10
2019-03-22T00:27:24.925Z,19.07
2019-03-22T00:29:53.361Z,15.85
2019-03-22T00:32:21.798Z,18.87
2019-03-22T00:34:50.313Z,14.80
2019-03-22T00:37:18.792Z,17.12
2019-03-22T00:39:47.698Z,13.85
2019-03-22T00:42:16.122Z,15.53
2019-03-22T00:44:44.533Z,11.30
2019-03-22T00:47:12.941Z,16.32
2019-03-22T00:49:41.396Z,11.20
2019-03-22T00:52:09.827Z,10.48
2019-03-22T00:54:38.301Z,17.37
2019-03-22T00:57:06.806Z,10.78
2019-03-22T00:59:35.229Z,13.95
2019-03-22T01:02:03.647Z,13.10
2019-03-22T01:04:32.073Z,11.15
2019-03-22T01:07:00.761Z,11.63
2019-03-22T01:09:29.241Z,15.55
2019-03-22T01:11:57.655Z,11.35
2019-03-22T01:14:26.065Z,14.87
2019-03-22T01:16:54.488Z,14.47
2019-03-22T01:19:22.902Z,10.90
2019-03-22T01:21:51.391Z,10.15
2019-03-22T01:24:20.152Z,13.03
2019-03-22T01:26:48.575Z,12.65
2019-03-22T01:29:16.977Z,11.48
2019-03-22T01:31:45.429Z,14.15
2019-03-22T01:34:13.821Z,12.43
2019-03-22T01:36:42.245Z,10.48
2019-03-22T01:39:10.658Z,16.77
2019-03-22T01:41:39.093Z,9.55
2019-03-22T01:44:07.538Z,10.20
2019-03-22T01:46:36.284Z,9.65
2019-03-22T01:49:05.369Z,11.03
2019-03-22T01:51:33.785Z,11.55
2019-03-22T01:54:02.211Z,11.40
2019-03-22T01:56:30.646Z,13.22
2019-03-22T01:58:59.074Z,9.50
2019-03-22T02:01:27.561Z,11.00
2019-03-22T02:03:56.277Z,13.72
2019-03-22T02:06:24.685Z,11.63
2019-03-22T02:08:53.093Z,11.95
2019-03-22T02:11:21.494Z,12.98
2019-03-22T02:13:49.996Z,19.92
2019-03-22T02:16:19.003Z,11.60
2019-03-22T02:18:47.501Z,15.50
2019-03-22T02:21:15.904Z,14.20
2019-03-22T02:23:44.349Z,11.70
2019-03-22T02:26:12.730Z,9.50
2019-03-22T02:28:41.275Z,12.88
2019-03-22T02:31:09.731Z,15.95
2019-03-22T02:33:38.125Z,13.00
2019-03-22T02:36:06.558Z,14.30
2019-03-22T02:38:34.975Z,13.70
2019-03-22T02:41:03.403Z,11.65
2019-03-22T02:43:31.907Z,10.60
2019-03-22T02:46:00.405Z,13.22
2019-03-22T02:48:29.014Z,17.65
2019-03-22T02:50:57.435Z,13.72
2019-03-22T02:53:25.844Z,10.45
2019-03-22T02:55:54.428Z,15.80
2019-03-22T02:58:22.947Z,17.77
2019-03-22T03:00:51.380Z,14.70
2019-03-22T03:03:20.109Z,13.13
2019-03-22T03:05:48.541Z,13.32
2019-03-22T03:08:16.954Z,13.98
2019-03-22T03:10:45.408Z,14.68
2019-03-22T03:13:13.882Z,16.12
2019-03-22T03:15:42.330Z,15.63
2019-03-22T03:18:10.840Z,14.15
2019-03-22T03:20:39.235Z,11.85
2019-03-22T03:23:07.775Z,12.75
2019-03-22T03:25:36.209Z,13.75
2019-03-22T03:28:04.768Z,15.78
2019-03-22T03:30:33.488Z,17.55
2019-03-22T03:33:02.036Z,12.40
2019-03-22T03:35:30.739Z,15.68
2019-03-22T03:37:59.235Z,15.85
2019-03-22T03:40:27.799Z,15.38
2019-03-22T03:42:56.298Z,14.65
2019-03-22T03:45:30.533Z,14.03
2019-03-22T03:48:00.873Z,12.58
2019-03-22T03:50:29.625Z,12.98
2019-03-22T03:52:58.206Z,11.22
2019-03-22T03:55:27.371Z,14.23
2019-03-22T03:57:56.143Z,16.67
2019-03-22T04:00:24.584Z,14.58
2019-03-22T04:02:53.083Z,15.88
2019-03-22T04:05:21.506Z,16.17
2019-03-22T04:07:49.938Z,16.10
2019-03-22T04:10:18.485Z,16.30
2019-03-22T04:12:46.949Z,18.07
2019-03-22T04:15:15.487Z,11.73
2019-03-22T04:17:43.946Z,16.30
2019-03-22T04:20:12.476Z,18.82
2019-03-22T04:22:40.918Z,14.30
2019-03-22T04:25:09.484Z,16.20
2019-03-22T04:27:37.957Z,12.28
2019-03-22T04:30:07.203Z,13.20
2019-03-22T04:32:35.659Z,15.32
2019-03-22T04:35:06.105Z,14.53
2019-03-22T04:37:34.545Z,14.10
2019-03-22T04:40:04.516Z,16.82
2019-03-22T04:42:32.957Z,17.10
2019-03-22T04:45:01.425Z,16.45
2019-03-22T04:47:29.841Z,15.05
2019-03-22T04:49:58.361Z,14.53
2019-03-22T04:52:27.314Z,15.55
2019-03-22T04:54:57.825Z,14.20
2019-03-22T04:57:28.093Z,17.50
2019-03-22T04:59:57.844Z,14.95
2019-03-22T05:02:26.812Z,13.00
2019-03-22T05:04:55.553Z,17.00
2019-03-22T05:07:24.056Z,15.85
2019-03-22T05:09:52.537Z,19.00
2019-03-22T05:12:22.501Z,17.00
2019-03-22T05:14:52.246Z,23.38
2019-03-22T05:17:21.317Z,16.20
2019-03-22T05:19:52.882Z,18.10
2019-03-22T05:22:23.002Z,17.77
2019-03-22T05:24:52.602Z,14.03
2019-03-22T05:27:22.325Z,16.02
2019-03-22T05:29:53.936Z,16.57
2019-03-22T05:32:22.582Z,13.88
2019-03-22T05:34:51.050Z,16.07
2019-03-22T05:37:19.862Z,20.27
2019-03-22T05:39:48.298Z,16.50
2019-03-22T05:42:16.800Z,18.25
2019-03-22T05:44:45.210Z,14.23
2019-03-22T05:47:13.637Z,13.75
2019-03-22T05:49:42.093Z,15.83
2019-03-22T05:52:10.521Z,19.37
2019-03-22T05:54:38.956Z,24.18
2019-03-22T05:57:13.453Z,19.65
2019-03-22T05:59:42.444Z,13.13
2019-03-22T06:02:07.689Z,16.30
2019-03-22T06:04:36.450Z,28.17
2019-03-22T06:07:04.863Z,22.40
2019-03-22T06:09:33.325Z,21.33
2019-03-22T06:12:02.975Z,22.30
2019-03-22T06:14:31.400Z,19.62
2019-03-22T06:16:59.850Z,22.02
2019-03-22T06:19:28.801Z,19.75
2019-03-22T06:21:57.253Z,12.73
2019-03-22T06:24:25.664Z,19.30
2019-03-22T06:26:54.161Z,17.37
2019-03-22T06:29:22.905Z,21.12
2019-03-22T06:31:51.556Z,19.95
2019-03-22T06:34:19.979Z,18.65
2019-03-22T06:36:48.477Z,16.73
2019-03-22T06:39:16.939Z,16.82
2019-03-22T06:41:45.361Z,21.52
2019-03-22T06:44:13.866Z,18.50
2019-03-22T06:46:42.339Z,16.48
2019-03-22T06:49:10.777Z,12.65
2019-03-22T06:51:39.191Z,18.05
2019-03-22T06:54:07.618Z,19.12
2019-03-22T06:56:36.025Z,25.43
2019-03-22T06:59:04.920Z,18.82
2019-03-22T07:01:33.640Z,17.67
2019-03-22T07:04:02.546Z,17.32
2019-03-22T07:06:31.814Z,16.97
2019-03-22T07:09:00.640Z,16.85
2019-03-22T07:11:29.365Z,16.20
2019-03-22T07:13:58.018Z,15.88
2019-03-22T07:16:26.502Z,16.97
2019-03-22T07:18:55.015Z,14.80
2019-03-22T07:21:23.418Z,18.73
2019-03-22T07:23:51.925Z,15.75
2019-03-22T07:26:20.350Z,19.32
2019-03-22T07:28:48.769Z,13.05
2019-03-22T07:31:17.185Z,17.82
2019-03-22T07:33:45.625Z,21.30
2019-03-22T07:36:14.073Z,14.60
2019-03-22T07:38:42.681Z,18.70
2019-03-22T07:41:11.177Z,15.28
2019-03-22T07:43:39.653Z,18.20
2019-03-22T07:46:08.077Z,16.40
2019-03-22T07:48:36.508Z,15.90
2019-03-22T07:51:04.944Z,13.77
2019-03-22T07:53:33.369Z,15.60
2019-03-22T07:56:01.843Z,24.75
2019-03-22T07:58:30.259Z,14.20
2019-03-22T08:01:00.547Z,43.97
2019-03-22T08:03:28.987Z,28.53
2019-03-22T08:05:57.450Z,17.57
2019-03-22T08:08:26.229Z,124.43
2019-03-22T08:10:54.713Z,22.93
2019-03-22T08:13:23.196Z,19.27
2019-03-22T08:15:51.653Z,15.27
2019-03-22T08:18:20.154Z,23.00
2019-03-22T08:20:48.633Z,30.47
2019-03-22T08:23:21.831Z,35.93
2019-03-22T08:25:50.666Z,80.80
2019-03-22T08:28:19.200Z,44.40
2019-03-22T08:30:47.673Z,1772.23
2019-03-22T08:33:16.134Z,597.40
2019-03-22T08:35:44.644Z,456.23
2019-03-22T08:38:13.226Z,103.83
2019-03-22T08:40:41.760Z,1113.73
2019-03-22T08:43:10.237Z,384.43
2019-03-22T08:45:38.681Z,137.07
2019-03-22T08:48:07.243Z,1999.90
2019-03-22T08:50:35.795Z,22.23
2019-03-22T08:53:05.048Z,1999.90
2019-03-22T08:55:33.596Z,232.37
2019-03-22T08:58:02.066Z,1063.60
2019-03-22T09:00:39.030Z,192.30
2019-03-22T09:03:00.765Z,1383.53
2019-03-22T09:05:29.215Z,1999.90
2019-03-22T09:07:57.702Z,127.93
2019-03-22T09:10:26.149Z,891.50
2019-03-22T09:12:54.586Z,1999.90
2019-03-22T09:15:23.208Z,59.43
2019-03-22T09:17:51.674Z,391.47
2019-03-22T09:20:20.126Z,1999.90
2019-03-22T09:22:48.553Z,1295.67
2019-03-22T09:25:17.134Z,1197.77
2019-03-22T09:27:45.580Z,1199.33
2019-03-22T09:30:14.766Z,941.67
2019-03-22T09:32:43.258Z,779.93
2019-03-22T09:35:11.862Z,884.23
2019-03-22T09:37:40.347Z,755.27
2019-03-22T09:40:09.432Z,816.87
2019-03-22T09:42:37.901Z,681.23
2019-03-22T09:45:08.513Z,545.73
2019-03-22T09:47:36.968Z,833.47
2019-03-22T09:50:08.357Z,942.13
2019-03-22T09:52:36.899Z,1052.03
2019-03-22T09:55:13.360Z,1086.27
2019-03-22T09:57:36.034Z,1432.80
2019-03-22T10:00:07.401Z,1999.90
2019-03-22T10:02:35.959Z,1999.90
2019-03-22T10:05:05.809Z,1999.90
2019-03-22T10:07:34.310Z,1999.90
2019-03-22T10:10:03.436Z,1999.90
2019-03-22T10:12:31.902Z,1999.90
2019-03-22T10:15:00.449Z,1999.90
2019-03-22T10:17:29.010Z,808.67
2019-03-22T10:19:57.513Z,786.80
2019-03-22T10:22:25.980Z,1999.90
2019-03-22T10:24:54.858Z,1999.90
2019-03-22T10:27:23.272Z,1999.90
2019-03-22T10:29:51.806Z,1999.90
2019-03-22T10:32:20.675Z,1999.90
2019-03-22T10:34:50.571Z,1999.90
2019-03-22T10:37:19.013Z,1999.90
2019-03-22T10:39:47.483Z,1999.90
2019-03-22T10:42:16.061Z,1999.90
2019-03-22T10:44:44.560Z,1999.90
2019-03-22T10:47:13.037Z,1999.90
2019-03-22T10:49:42.085Z,1999.90
2019-03-22T10:52:11.053Z,1999.90
2019-03-22T10:54:39.643Z,365.10
2019-03-22T10:57:08.548Z,1999.90
2019-03-22T10:59:37.026Z,1999.90
2019-03-22T11:02:07.835Z,1999.90
2019-03-22T11:04:35.819Z,1999.90
2019-03-22T11:07:04.947Z,1999.90
2019-03-22T11:09:33.398Z,661.07
2019-03-22T11:12:11.747Z,1479.50
2019-03-22T11:14:32.167Z,501.43
2019-03-22T11:17:00.665Z,1999.90
2019-03-22T11:19:29.236Z,1999.90
2019-03-22T11:21:57.683Z,1403.20
2019-03-22T11:24:26.129Z,1999.90
2019-03-22T11:26:54.570Z,1999.90
2019-03-22T11:29:23.042Z,423.87
2019-03-22T11:31:51.487Z,687.97
2019-03-22T11:34:20.017Z,774.60
2019-03-22T11:36:48.435Z,758.17
2019-03-22T11:39:17.513Z,771.93
2019-03-22T11:41:45.945Z,762.90
2019-03-22T11:44:14.519Z,923.93
2019-03-22T11:46:43.479Z,610.27
2019-03-22T11:49:12.511Z,753.43
2019-03-22T11:51:41.173Z,771.33
2019-03-22T11:54:09.650Z,663.60
2019-03-22T11:56:38.049Z,860.03
2019-03-22T11:59:06.644Z,412.23
2019-03-22T12:01:35.140Z,668.13
2019-03-22T12:04:03.801Z,228.57
2019-03-22T12:06:32.295Z,402.37
2019-03-22T12:09:00.764Z,574.57
2019-03-22T12:11:29.550Z,654.57
2019-03-22T12:13:58.034Z,564.03
2019-03-22T12:16:26.472Z,333.90
2019-03-22T12:18:55.001Z,209.70
2019-03-22T12:21:23.440Z,233.63
2019-03-22T12:23:51.943Z,240.23
2019-03-22T12:26:20.403Z,215.63
2019-03-22T12:28:48.962Z,386.43
2019-03-22T12:31:19.382Z,605.77
2019-03-22T12:33:47.545Z,34.37
2019-03-22T12:36:16.352Z,27.60
2019-03-22T12:38:44.826Z,27.23
2019-03-22T12:41:13.234Z,28.67
2019-03-22T12:43:41.674Z,26.40
2019-03-22T12:46:10.161Z,34.43
2019-03-22T12:48:38.594Z,20.73
2019-03-22T12:51:07.008Z,15.57
2019-03-22T12:53:35.436Z,15.90
2019-03-22T12:56:04.237Z,14.50
2019-03-22T12:58:32.665Z,15.30
2019-03-22T13:01:01.257Z,13.23
2019-03-22T13:03:29.845Z,13.27
2019-03-22T13:05:58.257Z,9.97
2019-03-22T13:08:26.776Z,10.00
2019-03-22T13:10:55.277Z,12.57
2019-03-22T13:13:23.701Z,14.50
2019-03-22T13:15:52.173Z,12.23
2019-03-22T13:18:20.663Z,12.20
2019-03-22T13:20:51.029Z,10.40
2019-03-22T13:23:19.673Z,14.00
2019-03-22T13:25:48.134Z,16.57
2019-03-22T13:28:16.587Z,11.63
2019-03-22T13:30:45.021Z,11.60
2019-03-22T13:33:13.465Z,15.00
2019-03-22T13:35:41.888Z,16.40
2019-03-22T13:38:10.398Z,27.77
2019-03-22T13:40:38.843Z,13.27
2019-03-22T13:43:07.521Z,17.30
2019-03-22T13:45:36.068Z,19.60
2019-03-22T13:48:04.658Z,17.30
2019-03-22T13:50:33.112Z,14.57
2019-03-22T13:53:01.601Z,15.13
2019-03-22T13:55:30.020Z,15.20
2019-03-22T13:57:58.527Z,21.43
2019-03-22T14:00:26.985Z,18.97
2019-03-22T14:03:03.030Z,17.10
2019-03-22T14:05:25.693Z,16.33
2019-03-22T14:07:54.963Z,14.53
2019-03-22T14:10:31.339Z,12.63
2019-03-22T14:13:03.679Z,17.23
2019-03-22T14:15:32.130Z,19.60
2019-03-22T14:18:01.366Z,15.80
2019-03-22T14:20:30.334Z,14.10
2019-03-22T14:22:58.913Z,11.37
2019-03-22T14:25:28.374Z,13.80
2019-03-22T14:27:57.662Z,15.10
2019-03-22T14:30:26.155Z,13.43
2019-03-22T14:32:55.019Z,14.90
2019-03-22T14:35:23.507Z,15.00
2019-03-22T14:37:51.950Z,14.40
2019-03-22T14:40:20.413Z,13.30
2019-03-22T14:42:48.865Z,10.47
2019-03-22T14:45:17.374Z,13.70
2019-03-22T14:47:46.121Z,13.10
2019-03-22T14:50:14.650Z,11.00
2019-03-22T14:52:43.098Z,20.50
2019-03-22T14:55:11.514Z,13.10
2019-03-22T14:57:48.285Z,15.10
2019-03-22T15:00:12.589Z,13.47
2019-03-22T15:02:41.021Z,15.17
2019-03-22T15:05:09.562Z,13.70
2019-03-22T15:07:38.488Z,14.40
2019-03-22T15:10:09.242Z,11.07
2019-03-22T15:12:37.706Z,15.97
2019-03-22T15:15:15.720Z,13.97
2019-03-22T15:17:48.847Z,12.97
2019-03-22T15:20:18.958Z,13.40
2019-03-22T15:22:51.866Z,15.60
2019-03-22T15:25:40.568Z,13.37
2019-03-22T15:28:27.592Z,12.80
2019-03-22T15:31:12.665Z,12.47
2019-03-22T15:33:54.668Z,10.63
2019-03-22T15:36:33.441Z,14.53
2019-03-22T15:39:19.856Z,12.67
2019-03-22T15:41:50.002Z,13.40
2019-03-22T15:44:18.763Z,13.80
2019-03-22T15:46:47.223Z,15.53
2019-03-22T15:49:15.709Z,13.90
2019-03-22T15:51:44.154Z,14.87
2019-03-22T15:54:12.631Z,15.03
2019-03-22T15:56:41.107Z,17.13
2019-03-22T15:59:09.533Z,10.70
2019-03-22T16:01:38.008Z,14.17
2019-03-22T16:04:06.487Z,17.47
2019-03-22T16:06:35.217Z,15.63
2019-03-22T16:09:05.401Z,19.43
2019-03-22T16:11:33.861Z,15.03
2019-03-22T16:14:02.580Z,17.30
2019-03-22T16:16:31.041Z,14.30
2019-03-22T16:18:59.565Z,15.73
2019-03-22T16:21:27.975Z,16.00
2019-03-22T16:23:56.429Z,15.73
2019-03-22T16:26:24.874Z,16.67
2019-03-22T16:28:53.615Z,13.40
2019-03-22T16:31:22.097Z,13.57
2019-03-22T16:33:54.357Z,14.27
2019-03-22T16:36:20.685Z,14.67
2019-03-22T16:38:49.116Z,14.10
2019-03-22T16:41:17.558Z,16.73
2019-03-22T16:43:46.064Z,18.03
2019-03-22T16:46:14.555Z,18.10
2019-03-22T16:48:42.976Z,16.37
2019-03-22T16:51:11.391Z,18.80
2019-03-22T16:53:40.166Z,19.80
2019-03-22T16:56:08.597Z,19.37
2019-03-22T16:58:37.055Z,22.33
2019-03-22T17:01:06.629Z,24.10
2019-03-22T17:03:35.333Z,31.17
2019-03-22T17:06:03.837Z,26.50
2019-03-22T17:08:32.353Z,29.83
2019-03-22T17:11:00.840Z,35.80
2019-03-22T17:13:29.294Z,40.20
2019-03-22T17:15:57.718Z,43.83
2019-03-22T17:18:26.174Z,46.33
2019-03-22T17:20:54.670Z,45.20
2019-03-22T17:23:23.208Z,62.17
2019-03-22T17:25:51.997Z,125.30
2019-03-22T17:28:20.514Z,192.80
2019-03-22T17:30:48.947Z,275.03
2019-03-22T17:33:17.378Z,370.73
2019-03-22T17:35:45.802Z,398.27
2019-03-22T17:38:14.246Z,433.53
2019-03-22T17:40:42.665Z,507.27
2019-03-22T17:43:11.130Z,445.57
2019-03-22T17:45:39.557Z,643.50
2019-03-22T17:48:08.025Z,887.23
2019-03-22T17:50:36.477Z,1999.90
2019-03-22T17:53:05.121Z,881.93
2019-03-22T17:55:33.609Z,1999.90
2019-03-22T17:58:02.905Z,1999.90
2019-03-22T18:00:31.509Z,1999.90
2019-03-22T18:02:59.942Z,530.07
2019-03-22T18:05:28.497Z,1999.90
2019-03-22T18:07:57.141Z,680.23
2019-03-22T18:10:25.616Z,896.80
2019-03-22T18:12:54.029Z,939.07
2019-03-22T18:15:22.482Z,984.03
2019-03-22T18:17:50.889Z,240.63
2019-03-22T18:20:19.755Z,160.77
2019-03-22T18:22:48.218Z,121.00
2019-03-22T18:25:16.656Z,108.53
2019-03-22T18:27:45.092Z,102.27
2019-03-22T18:30:17.104Z,73.43
2019-03-22T18:32:45.533Z,77.10
2019-03-22T18:35:14.118Z,70.47
2019-03-22T18:37:42.522Z,85.47
2019-03-22T18:40:15.421Z,62.50
2019-03-22T18:42:44.008Z,39.53
2019-03-22T18:45:15.330Z,25.70
2019-03-22T18:47:45.443Z,26.20
2019-03-22T18:50:14.449Z,25.40
2019-03-22T18:52:42.881Z,24.70
2019-03-22T18:55:12.210Z,21.43
2019-03-22T18:57:40.651Z,24.00
2019-03-22T19:00:14.257Z,23.67
2019-03-22T19:02:42.670Z,24.87
2019-03-22T19:05:21.016Z,23.47
2019-03-22T19:07:49.519Z,25.57
2019-03-22T19:10:18.051Z,26.20
2019-03-22T19:12:46.479Z,24.97
2019-03-22T19:15:16.356Z,20.40
2019-03-22T19:17:44.796Z,27.77
2019-03-22T19:20:14.995Z,21.20
2019-03-22T19:22:44.598Z,25.13
2019-03-22T19:25:14.482Z,20.43
2019-03-22T19:27:43.629Z,23.73
2019-03-22T19:30:16.209Z,25.93
2019-03-22T19:32:44.654Z,21.70
2019-03-22T19:35:13.526Z,18.50
2019-03-22T19:37:41.986Z,21.63
2019-03-22T19:40:12.834Z,17.90
2019-03-22T19:42:41.290Z,18.05
2019-03-22T19:45:11.346Z,20.32
2019-03-22T19:47:40.033Z,17.95
2019-03-22T19:50:10.548Z,19.20
2019-03-22T19:52:39.114Z,21.77
2019-03-22T19:55:09.237Z,16.77
2019-03-22T19:57:38.256Z,19.73
2019-03-22T20:00:14.434Z,21.97
2019-03-22T20:02:43.299Z,21.80
2019-03-22T20:05:11.873Z,22.10
2019-03-22T20:07:40.341Z,21.20
2019-03-22T20:10:11.192Z,18.60
2019-03-22T20:12:39.612Z,23.90
2019-03-22T20:15:09.834Z,17.85
2019-03-22T20:17:38.854Z,22.17
2019-03-22T20:20:09.009Z,19.25
2019-03-22T20:22:37.470Z,18.27
2019-03-22T20:25:09.733Z,15.55
2019-03-22T20:27:38.254Z,18.87
2019-03-22T20:30:08.813Z,19.85
2019-03-22T20:32:37.291Z,19.37
2019-03-22T20:35:16.284Z,15.25
2019-03-22T20:37:38.990Z,17.60
2019-03-22T20:40:10.005Z,20.77
2019-03-22T20:42:38.453Z,18.77
2019-03-22T20:45:08.120Z,20.17
2019-03-22T20:47:36.877Z,16.42
2019-03-22T20:50:07.402Z,14.87
2019-03-22T20:52:35.931Z,19.60
2019-03-22T20:55:07.330Z,15.90
2019-03-22T20:57:35.801Z,19.60
2019-03-22T21:00:06.391Z,22.10
2019-03-22T21:02:34.860Z,16.40
2019-03-22T21:05:03.446Z,21.85
2019-03-22T21:07:31.947Z,18.12
2019-03-22T21:10:00.704Z,16.55
2019-03-22T21:12:29.104Z,17.65
2019-03-22T21:14:57.502Z,22.22
2019-03-22T21:17:25.956Z,21.70
2019-03-22T21:19:54.862Z,20.45
2019-03-22T21:22:23.299Z,18.70
2019-03-22T21:24:51.733Z,22.98
2019-03-22T21:27:20.217Z,24.82
2019-03-22T21:29:48.893Z,28.77
2019-03-22T21:32:17.322Z,23.98
2019-03-22T21:34:45.761Z,22.73
2019-03-22T21:37:14.206Z,20.75
2019-03-22T21:39:42.617Z,23.12
2019-03-22T21:42:11.079Z,21.62
2019-03-22T21:44:39.570Z,23.47
2019-03-22T21:47:08.131Z,21.00
2019-03-22T21:49:36.534Z,21.73
2019-03-22T21:52:05.106Z,22.00
2019-03-22T21:54:33.594Z,24.05
2019-03-22T21:57:02.180Z,21.30
2019-03-22T21:59:30.597Z,22.73
2019-03-22T22:01:59.136Z,27.65
2019-03-22T22:04:27.602Z,24.45
2019-03-22T22:06:56.047Z,26.05
2019-03-22T22:09:24.884Z,20.35
2019-03-22T22:11:53.305Z,24.12
2019-03-22T22:14:21.806Z,22.90
2019-03-22T22:16:50.292Z,23.32
2019-03-22T22:19:18.713Z,24.87
2019-03-22T22:21:47.149Z,23.12
2019-03-22T22:24:15.595Z,22.73
2019-03-22T22:26:44.083Z,26.77
2019-03-22T22:29:12.500Z,27.07
2019-03-22T22:31:41.221Z,27.80
2019-03-22T22:34:09.650Z,24.00
2019-03-22T22:36:38.177Z,22.98
2019-03-22T22:39:06.597Z,28.75
2019-03-22T22:41:35.007Z,25.48
2019-03-22T22:44:03.437Z,26.95
2019-03-22T22:46:31.897Z,24.23
2019-03-22T22:49:00.425Z,27.87
2019-03-22T22:51:28.833Z,27.22
2019-03-22T22:53:57.281Z,25.08
2019-03-22T22:56:25.731Z,26.12
2019-03-22T22:58:54.211Z,31.00
2019-03-22T23:01:22.749Z,33.08
2019-03-22T23:03:51.322Z,27.13
2019-03-22T23:06:19.743Z,24.60
2019-03-22T23:08:48.240Z,27.52
2019-03-22T23:11:16.729Z,26.05
2019-03-22T23:13:45.266Z,24.37
2019-03-22T23:16:14.021Z,29.07
2019-03-22T23:18:42.515Z,33.75
2019-03-22T23:21:11.089Z,29.45
2019-03-22T23:23:39.582Z,29.02
2019-03-22T23:26:08.001Z,29.05
2019-03-22T23:28:36.429Z,25.62
2019-03-22T23:31:04.869Z,31.25
2019-03-22T23:33:33.341Z,26.50
2019-03-22T23:36:01.862Z,29.55
2019-03-22T23:38:30.334Z,32.35
2019-03-22T23:40:58.741Z,32.40
2019-03-22T23:43:30.133Z,30.05
2019-03-22T23:45:58.614Z,38.80
2019-03-22T23:48:27.049Z,28.60
2019-03-22T23:50:55.448Z,36.93
2019-03-22T23:53:23.901Z,31.50
2019-03-22T23:55:52.346Z,30.20
2019-03-22T23:58:20.774Z,26.45
